createdAt,value
2022-11-03T00:01:47.968Z,101236.91
2022-11-03T00:04:17.739Z,101236.06
2022-11-03T00:06:48.996Z,101232.56
2022-11-03T00:09:17.677Z,101233.47
2022-11-03T00:11:46.321Z,101244.97
2022-11-03T00:14:14.996Z,101231.78
2022-11-03T00:16:41.839Z,101234.41
2022-11-03T00:19:09.995Z,101219.44
2022-11-03T00:21:37.452Z,101230.91
2022-11-03T00:24:05.112Z,101233.56
2022-11-03T00:26:34.172Z,101229.16
2022-11-03T00:29:06.158Z,101237.09
2022-11-03T00:31:35.402Z,101226.47
2022-11-03T00:34:05.316Z,101235.31
2022-11-03T00:36:34.582Z,101237.97
2022-11-03T00:39:02.280Z,101238.81
2022-11-03T00:41:29.178Z,101236.16
2022-11-03T00:43:56.026Z,101231.75
2022-11-03T00:46:24.218Z,101227.31
2022-11-03T00:48:51.633Z,101214.97
2022-11-03T00:51:21.449Z,101236.97
2022-11-03T00:53:53.992Z,101236.94
2022-11-03T00:56:22.901Z,101243.06
2022-11-03T00:58:51.450Z,101240.47
2022-11-03T01:01:24.623Z,101221.91
2022-11-03T01:04:13.531Z,101226.37
2022-11-03T01:06:50.142Z,101231.69
2022-11-03T01:09:29.585Z,101240.56
2022-11-03T01:12:09.110Z,101237.91
2022-11-03T01:14:49.151Z,101234.41
2022-11-03T01:17:18.920Z,101230.00
2022-11-03T01:19:46.322Z,101236.16
2022-11-03T01:22:14.082Z,101230.00
2022-11-03T01:24:42.060Z,101227.34
2022-11-03T01:27:15.044Z,101206.09
2022-11-03T01:29:41.997Z,101208.69
2022-11-03T01:32:09.617Z,101225.44
2022-11-03T01:34:36.969Z,101230.78
2022-11-03T01:37:04.131Z,101223.63
2022-11-03T01:39:30.877Z,101225.41
2022-11-03T01:41:57.760Z,101205.94
2022-11-03T01:44:26.058Z,101196.19
2022-11-03T01:47:02.332Z,101226.28
2022-11-03T01:49:35.405Z,101224.53
2022-11-03T01:52:08.391Z,101222.69
2022-11-03T01:54:38.073Z,101210.37
2022-11-03T01:57:13.676Z,101195.47
2022-11-03T01:59:43.075Z,101225.44
2022-11-03T02:02:09.972Z,101215.69
2022-11-03T02:04:37.222Z,101214.69
2022-11-03T02:07:33.966Z,101212.87
2022-11-03T02:10:01.501Z,101219.87
2022-11-03T02:12:28.900Z,101219.03
2022-11-03T02:15:06.393Z,101215.44
2022-11-03T02:17:34.453Z,101217.09
2022-11-03T02:20:11.228Z,101209.94
2022-11-03T02:23:05.056Z,101236.34
2022-11-03T02:25:40.743Z,101224.19
2022-11-03T02:28:08.105Z,101224.28
2022-11-03T02:30:57.875Z,101210.19
2022-11-03T02:33:38.996Z,101234.84
2022-11-03T02:36:16.115Z,101226.91
2022-11-03T02:39:02.283Z,101225.06
2022-11-03T02:41:33.384Z,101233.03
2022-11-03T02:44:02.835Z,101235.59
2022-11-03T02:46:31.780Z,101228.53
2022-11-03T02:48:58.892Z,101217.03
2022-11-03T02:51:25.998Z,101233.81
2022-11-03T02:54:14.394Z,101244.38
2022-11-03T02:56:52.217Z,101226.69
2022-11-03T02:59:28.291Z,101234.59
2022-11-03T03:02:09.390Z,101229.28
2022-11-03T03:04:55.540Z,101228.31
2022-11-03T03:07:27.657Z,101244.19
2022-11-03T03:10:06.816Z,101251.25
2022-11-03T03:12:37.067Z,101236.19
2022-11-03T03:15:07.196Z,101233.44
2022-11-03T03:18:15.535Z,101226.28
2022-11-03T03:20:55.022Z,101250.09
2022-11-03T03:23:29.994Z,101243.78
2022-11-03T03:26:12.684Z,101229.47
2022-11-03T03:29:14.493Z,101245.28
2022-11-03T03:31:47.452Z,101246.94
2022-11-03T03:34:33.981Z,101248.62
2022-11-03T03:37:02.960Z,101245.91
2022-11-03T03:39:34.359Z,101241.38
2022-11-03T03:42:03.246Z,101241.41
2022-11-03T03:44:32.689Z,101245.81
2022-11-03T03:47:03.531Z,101232.44
2022-11-03T03:49:32.007Z,101227.97
2022-11-03T03:51:59.557Z,101241.25
2022-11-03T03:54:26.365Z,101226.25
2022-11-03T03:57:02.982Z,101203.13
2022-11-03T03:59:30.276Z,101238.50
2022-11-03T04:01:57.749Z,101239.34
2022-11-03T04:04:25.308Z,101226.00
2022-11-03T04:07:12.070Z,101240.91
2022-11-03T04:09:38.979Z,101225.91
2022-11-03T04:12:25.093Z,101229.34
2022-11-03T04:15:10.570Z,101246.03
2022-11-03T04:18:00.891Z,101229.06
2022-11-03T04:20:46.111Z,101243.13
2022-11-03T04:23:12.930Z,101230.59
2022-11-03T04:25:40.117Z,101213.72
2022-11-03T04:28:14.746Z,101235.69
2022-11-03T04:30:42.362Z,101205.69
2022-11-03T04:33:17.918Z,101222.47
2022-11-03T04:35:46.304Z,101234.81
2022-11-03T04:38:16.171Z,101234.13
2022-11-03T04:40:47.114Z,101234.06
2022-11-03T04:43:20.377Z,101232.31
2022-11-03T04:45:48.578Z,101220.72
2022-11-03T04:48:21.178Z,101221.66
2022-11-03T04:50:50.401Z,101227.06
2022-11-03T04:53:18.559Z,101228.81
2022-11-03T04:55:47.293Z,101225.22
2022-11-03T04:58:21.511Z,101208.41
2022-11-03T05:00:54.171Z,101215.53
2022-11-03T05:03:25.279Z,101234.00
2022-11-03T05:05:52.262Z,101235.69
2022-11-03T05:08:20.298Z,101198.47
2022-11-03T05:10:48.082Z,101223.31
2022-11-03T05:13:23.916Z,101223.13
2022-11-03T05:15:54.589Z,101239.66
2022-11-03T05:18:35.351Z,101243.84
2022-11-03T05:21:09.341Z,101245.59
2022-11-03T05:23:40.063Z,101244.78
2022-11-03T05:26:14.603Z,101248.31
2022-11-03T05:28:44.814Z,101253.50
2022-11-03T05:31:22.308Z,101252.69
2022-11-03T05:33:51.293Z,101245.59
2022-11-03T05:36:24.428Z,101225.38
2022-11-03T05:38:58.701Z,101246.50
2022-11-03T05:41:29.231Z,101245.59
2022-11-03T05:43:59.972Z,101246.47
2022-11-03T05:46:33.287Z,101244.78
2022-11-03T05:49:03.886Z,101251.75
2022-11-03T05:51:37.974Z,101240.91
2022-11-03T05:54:09.263Z,101263.94
2022-11-03T05:56:36.068Z,101267.37
2022-11-03T05:59:04.999Z,101270.06
2022-11-03T06:01:35.620Z,101278.56
2022-11-03T06:04:24.268Z,101265.50
2022-11-03T06:06:54.297Z,101287.81
2022-11-03T06:09:25.376Z,101287.94
2022-11-03T06:11:58.782Z,101288.84
2022-11-03T06:14:28.369Z,101290.69
2022-11-03T06:17:07.373Z,101288.31
2022-11-03T06:19:39.824Z,101271.59
2022-11-03T06:22:20.863Z,101305.19
2022-11-03T06:24:47.835Z,101307.97
2022-11-03T06:27:17.169Z,101295.66
2022-11-03T06:29:52.515Z,101305.75
2022-11-03T06:32:19.370Z,101315.50
2022-11-03T06:34:49.017Z,101320.94
2022-11-03T06:37:23.559Z,101310.44
2022-11-03T06:39:51.780Z,101320.41
2022-11-03T06:42:21.601Z,101324.28
2022-11-03T06:44:50.604Z,101330.59
2022-11-03T06:47:21.053Z,101321.87
2022-11-03T06:49:48.730Z,101334.34
2022-11-03T06:52:33.882Z,101316.97
2022-11-03T06:55:16.703Z,101299.38
2022-11-03T06:57:47.169Z,101324.25
2022-11-03T07:00:34.723Z,101327.00
2022-11-03T07:03:18.229Z,101307.72
2022-11-03T07:05:45.373Z,101320.22
2022-11-03T07:08:25.275Z,101322.19
2022-11-03T07:11:04.084Z,101317.94
2022-11-03T07:13:34.616Z,101318.94
2022-11-03T07:16:01.746Z,101303.12
2022-11-03T07:18:35.361Z,101315.56
2022-11-03T07:21:19.826Z,101305.00
2022-11-03T07:23:47.379Z,101322.72
2022-11-03T07:26:14.269Z,101316.56
2022-11-03T07:28:41.448Z,101313.00
2022-11-03T07:31:23.273Z,101320.94
2022-11-03T07:33:55.693Z,101333.19
2022-11-03T07:36:24.545Z,101335.69
2022-11-03T07:38:53.559Z,101332.88
2022-11-03T07:41:26.951Z,101333.13
2022-11-03T07:43:59.196Z,101340.31
2022-11-03T07:46:27.183Z,101339.50
2022-11-03T07:49:01.344Z,101343.03
2022-11-03T07:51:40.796Z,101320.03
2022-11-03T07:54:18.697Z,101335.09
2022-11-03T07:56:52.908Z,101341.28
2022-11-03T07:59:29.153Z,101334.19
2022-11-03T08:01:57.811Z,101322.69
2022-11-03T08:04:30.610Z,101332.41
2022-11-03T08:06:57.470Z,101328.03
2022-11-03T08:09:24.346Z,101333.31
2022-11-03T08:11:51.679Z,101332.44
2022-11-03T08:14:18.582Z,101342.16
2022-11-03T08:16:46.258Z,101335.97
2022-11-03T08:19:13.124Z,101319.19
2022-11-03T08:21:40.004Z,101323.53
2022-11-03T08:24:07.077Z,101326.13
2022-11-03T08:26:33.930Z,101323.41
2022-11-03T08:29:00.722Z,101317.19
2022-11-03T08:31:28.402Z,101317.12
2022-11-03T08:33:55.692Z,101298.53
2022-11-03T08:36:22.740Z,101301.09
2022-11-03T08:38:49.576Z,101301.97
2022-11-03T08:41:25.349Z,101300.22
2022-11-03T08:43:52.199Z,101313.53
2022-11-03T08:46:19.025Z,101302.88
2022-11-03T08:48:46.559Z,101309.97
2022-11-03T08:51:14.882Z,101309.00
2022-11-03T08:53:42.878Z,101305.44
2022-11-03T08:56:12.835Z,101295.69
2022-11-03T08:58:45.291Z,101293.84
2022-11-03T09:01:12.885Z,101287.69
2022-11-03T09:03:40.621Z,101296.53
2022-11-03T09:06:08.424Z,101308.91
2022-11-03T09:11:22.129Z,101283.34
2022-11-03T09:13:48.993Z,101301.81
2022-11-03T09:16:16.127Z,101293.91
2022-11-03T09:18:42.967Z,101286.88
2022-11-03T09:21:10.187Z,101288.66
2022-11-03T09:23:37.062Z,101278.94
2022-11-03T09:26:05.849Z,101291.31
2022-11-03T09:28:33.095Z,101300.09
2022-11-03T09:30:59.936Z,101289.50
2022-11-03T09:33:26.943Z,101291.19
2022-11-03T09:35:53.904Z,101268.31
2022-11-03T09:38:20.808Z,101281.50
2022-11-03T09:43:19.692Z,101279.72
2022-11-03T09:45:46.683Z,101274.44
2022-11-03T09:48:13.990Z,101275.25
2022-11-03T09:50:41.314Z,101270.81
2022-11-03T09:53:12.570Z,101254.91
2022-11-03T09:55:39.968Z,101274.37
2022-11-03T09:58:24.600Z,101274.41
2022-11-03T10:00:51.507Z,101256.75
2022-11-03T10:03:20.457Z,101266.41
2022-11-03T10:05:48.264Z,101264.69
2022-11-03T10:08:24.279Z,101262.84
2022-11-03T10:10:52.160Z,101262.03
2022-11-03T10:13:50.428Z,101259.41
2022-11-03T10:16:23.205Z,101258.47
2022-11-03T10:18:50.439Z,101257.53
2022-11-03T10:21:36.109Z,101249.56
2022-11-03T10:24:02.902Z,101241.69
2022-11-03T10:26:35.710Z,101239.03
2022-11-03T10:29:05.494Z,101230.22
2022-11-03T10:31:35.404Z,101233.75
2022-11-03T10:34:02.871Z,101225.78
2022-11-03T10:36:33.404Z,101214.28
2022-11-03T10:39:25.689Z,101223.97
2022-11-03T10:42:00.174Z,101219.44
2022-11-03T10:44:28.840Z,101217.69
2022-11-03T10:47:01.563Z,101207.09
2022-11-03T10:49:31.170Z,101204.31
2022-11-03T10:52:30.591Z,101200.75
2022-11-03T10:54:59.402Z,101190.16
2022-11-03T10:57:27.915Z,101183.88
2022-11-03T10:59:55.520Z,101178.44
2022-11-03T11:02:25.669Z,101177.56
2022-11-03T11:05:01.460Z,101151.19
2022-11-03T11:07:33.953Z,101162.47
2022-11-03T11:10:13.155Z,101157.06
2022-11-03T11:13:15.101Z,101150.75
2022-11-03T11:15:49.004Z,101144.50
2022-11-03T11:18:39.059Z,101139.13
2022-11-03T11:21:21.150Z,101135.53
2022-11-03T11:23:49.340Z,101132.22
2022-11-03T11:26:25.016Z,101115.34
2022-11-03T11:29:10.345Z,101125.97
2022-11-03T11:31:38.597Z,101118.00
2022-11-03T11:34:18.322Z,101096.03
2022-11-03T11:37:10.971Z,101119.97
2022-11-03T11:39:44.352Z,101106.59
2022-11-03T11:42:17.556Z,101103.88
2022-11-03T11:44:45.920Z,101104.69
2022-11-03T11:47:26.687Z,101099.34
2022-11-03T11:50:07.537Z,101095.75
2022-11-03T11:52:41.823Z,101094.09
2022-11-03T11:55:42.644Z,101094.00
2022-11-03T11:58:31.776Z,101085.16
2022-11-03T12:01:03.755Z,101087.84
2022-11-03T12:03:35.857Z,101075.44
2022-11-03T12:06:05.764Z,101072.97
2022-11-03T12:08:33.040Z,101067.78
2022-11-03T12:11:05.398Z,101063.28
2022-11-03T12:13:48.639Z,101060.63
2022-11-03T12:16:34.888Z,101069.41
2022-11-03T12:19:35.972Z,101063.38
2022-11-03T12:22:05.330Z,101073.97
2022-11-03T12:24:32.316Z,101055.38
2022-11-03T12:27:00.529Z,101048.28
2022-11-03T12:29:27.473Z,101041.28
2022-11-03T12:31:54.474Z,101037.84
2022-11-03T12:34:21.393Z,101041.31
2022-11-03T12:36:53.151Z,101043.00
2022-11-03T12:39:22.708Z,101043.03
2022-11-03T12:41:49.616Z,101037.78
2022-11-03T12:44:17.411Z,101032.56
2022-11-03T12:46:44.261Z,101025.50
2022-11-03T12:49:11.186Z,101029.91
2022-11-03T12:51:38.883Z,101025.53
2022-11-03T12:54:05.710Z,101002.63
2022-11-03T12:56:32.478Z,101016.72
2022-11-03T12:58:59.280Z,101006.06
2022-11-03T13:01:27.159Z,101009.53
2022-11-03T13:03:54.192Z,101006.87
2022-11-03T13:06:21.204Z,101004.31
2022-11-03T13:08:53.075Z,101011.41
2022-11-03T13:11:38.780Z,101005.19
2022-11-03T13:14:06.001Z,101010.53
2022-11-03T13:16:33.405Z,100985.81
2022-11-03T13:19:00.292Z,100992.00
2022-11-03T13:21:27.145Z,100989.34
2022-11-03T13:23:53.981Z,101006.13
2022-11-03T13:26:20.902Z,101003.47
2022-11-03T13:28:48.032Z,100998.28
2022-11-03T13:31:15.411Z,100992.97
2022-11-03T13:33:42.222Z,100993.84
2022-11-03T13:36:09.105Z,100987.69
2022-11-03T13:38:36.158Z,100985.06
2022-11-03T13:41:08.500Z,100989.44
2022-11-03T13:43:36.370Z,100963.94
2022-11-03T13:46:05.023Z,100982.44
2022-11-03T13:51:19.249Z,100981.50
2022-11-03T13:59:27.981Z,100967.34
2022-11-03T14:04:43.460Z,100983.31
2022-11-03T14:07:10.964Z,100979.72
2022-11-03T14:12:28.034Z,100971.81
2022-11-03T14:14:54.850Z,100970.03
2022-11-03T14:17:21.690Z,100948.87
2022-11-03T14:19:52.813Z,100971.00
2022-11-03T14:22:21.270Z,100961.28
2022-11-03T14:24:48.781Z,100960.34
2022-11-03T14:27:16.375Z,100964.81
2022-11-03T14:29:50.096Z,100951.53
2022-11-03T14:32:18.446Z,100955.87
2022-11-03T14:34:46.147Z,100945.31
2022-11-03T14:37:13.717Z,100954.09
2022-11-03T14:39:41.959Z,100941.78
2022-11-03T14:42:15.549Z,100953.16
2022-11-03T14:44:49.028Z,100946.03
2022-11-03T14:47:18.550Z,100938.13
2022-11-03T14:49:46.656Z,100946.94
2022-11-03T14:52:14.522Z,100946.94
2022-11-03T14:54:41.879Z,100936.41
2022-11-03T14:57:09.856Z,100934.59
2022-11-03T14:59:36.859Z,100919.66
2022-11-03T15:02:04.809Z,100924.94
2022-11-03T15:04:31.971Z,100925.88
2022-11-03T15:06:58.767Z,100903.88
2022-11-03T15:09:25.764Z,100899.50
2022-11-03T15:11:55.164Z,100918.09
2022-11-03T15:14:22.048Z,100922.59
2022-11-03T15:16:48.938Z,100922.59
2022-11-03T15:19:15.866Z,100924.38
2022-11-03T15:21:42.731Z,100912.06
2022-11-03T15:26:56.578Z,100912.03
2022-11-03T15:29:24.263Z,100906.78
2022-11-03T15:31:51.248Z,100893.59
2022-11-03T15:34:18.447Z,100898.84
2022-11-03T15:36:45.809Z,100912.13
2022-11-03T15:39:15.083Z,100906.88
2022-11-03T15:41:42.638Z,100903.38
2022-11-03T15:44:10.066Z,100904.25
2022-11-03T15:46:37.406Z,100896.34
2022-11-03T15:49:05.826Z,100905.13
2022-11-03T15:51:32.738Z,100891.06
2022-11-03T15:53:59.883Z,100906.81
2022-11-03T15:56:27.694Z,100898.03
2022-11-03T15:58:54.965Z,100880.44
2022-11-03T16:01:22.254Z,100894.53
2022-11-03T16:03:49.812Z,100896.31
2022-11-03T16:06:19.090Z,100887.47
2022-11-03T16:08:46.335Z,100888.37
2022-11-03T16:11:14.284Z,100887.50
2022-11-03T16:13:42.211Z,100887.56
2022-11-03T16:16:10.374Z,100884.06
2022-11-03T16:18:38.568Z,100873.56
2022-11-03T16:21:06.443Z,100890.31
2022-11-03T16:23:33.717Z,100876.19
2022-11-03T16:26:04.627Z,100870.91
2022-11-03T16:28:32.623Z,100868.19
2022-11-03T16:31:00.321Z,100859.41
2022-11-03T16:33:27.712Z,100861.19
2022-11-03T16:35:54.928Z,100860.37
2022-11-03T16:38:22.743Z,100856.78
2022-11-03T16:40:50.265Z,100847.09
2022-11-03T16:43:18.287Z,100852.41
2022-11-03T16:45:45.964Z,100854.19
2022-11-03T16:48:14.786Z,100844.56
2022-11-03T16:50:45.053Z,100857.72
2022-11-03T16:53:13.458Z,100856.84
2022-11-03T16:55:41.077Z,100855.06
2022-11-03T16:58:09.716Z,100843.63
2022-11-03T17:00:39.774Z,100854.19
2022-11-03T17:03:09.084Z,100853.28
2022-11-03T17:05:37.582Z,100846.22
2022-11-03T17:08:05.755Z,100853.28
2022-11-03T17:10:33.863Z,100844.50
2022-11-03T17:13:06.202Z,100859.50
2022-11-03T17:15:37.333Z,100834.91
2022-11-03T17:18:05.045Z,100863.97
2022-11-03T17:20:33.442Z,100843.72
2022-11-03T17:23:00.847Z,100860.47
2022-11-03T17:25:29.564Z,100849.88
2022-11-03T17:28:01.610Z,100855.16
2022-11-03T17:30:34.578Z,100846.41
2022-11-03T17:33:07.982Z,100846.38
2022-11-03T17:35:40.414Z,100850.78
2022-11-03T17:38:15.798Z,100835.81
2022-11-03T17:40:48.348Z,100840.19
2022-11-03T17:43:21.794Z,100840.22
2022-11-03T17:45:50.213Z,100834.00
2022-11-03T17:48:18.606Z,100838.38
2022-11-03T17:50:49.533Z,100809.31
2022-11-03T17:53:28.719Z,100827.78
2022-11-03T17:58:47.857Z,100829.44
2022-11-03T18:01:25.177Z,100825.91
2022-11-03T18:03:55.058Z,100770.41
2022-11-03T18:06:24.941Z,100785.25
2022-11-03T18:08:59.579Z,100778.16
2022-11-03T18:11:48.886Z,100772.78
2022-11-03T18:14:22.463Z,100759.53
2022-11-03T18:16:51.651Z,100776.19
2022-11-03T18:19:19.936Z,100766.56
2022-11-03T18:21:48.848Z,100785.94
2022-11-03T18:24:19.648Z,100769.19
2022-11-03T18:26:47.413Z,100771.78
2022-11-03T18:29:15.688Z,100751.53
2022-11-03T18:31:47.481Z,100758.50
2022-11-03T18:34:26.062Z,100751.47
2022-11-03T18:36:55.700Z,100745.34
2022-11-03T18:39:26.864Z,100745.41
2022-11-03T18:41:55.276Z,100738.47
2022-11-03T18:44:28.587Z,100736.81
2022-11-03T18:47:01.155Z,100720.94
2022-11-03T18:49:30.972Z,100732.50
2022-11-03T18:52:04.066Z,100729.91
2022-11-03T18:54:35.612Z,100721.06
2022-11-03T18:57:04.546Z,100705.16
2022-11-03T18:59:37.266Z,100704.19
2022-11-03T19:02:22.091Z,100684.84
2022-11-03T19:04:50.040Z,100688.31
2022-11-03T19:07:25.722Z,100705.88
2022-11-03T19:09:53.978Z,100704.13
2022-11-03T19:12:24.148Z,100714.66
2022-11-03T19:14:52.489Z,100708.41
2022-11-03T19:17:23.827Z,100691.75
2022-11-03T19:19:53.730Z,100697.78
2022-11-03T19:22:23.587Z,100697.78
2022-11-03T19:24:51.522Z,100682.75
2022-11-03T19:27:30.343Z,100677.44
2022-11-03T19:29:59.762Z,100671.22
2022-11-03T19:32:40.826Z,100667.66
2022-11-03T19:35:20.943Z,100651.88
2022-11-03T19:38:03.607Z,100666.75
2022-11-03T19:40:33.185Z,100667.66
2022-11-03T19:43:01.298Z,100665.94
2022-11-03T19:45:29.456Z,100657.97
2022-11-03T19:48:23.106Z,100650.97
2022-11-03T19:50:49.460Z,100658.84
2022-11-03T19:53:27.946Z,100653.50
2022-11-03T19:55:56.462Z,100658.81
2022-11-03T19:58:27.734Z,100636.78
2022-11-03T20:00:56.904Z,100637.66
2022-11-03T20:03:25.538Z,100641.16
2022-11-03T20:05:58.390Z,100650.81
2022-11-03T20:08:42.061Z,100642.00
2022-11-03T20:11:23.568Z,100641.13
2022-11-03T20:13:52.780Z,100627.94
2022-11-03T20:16:22.039Z,100625.25
2022-11-03T20:18:52.861Z,100616.41
2022-11-03T20:21:23.570Z,100598.88
2022-11-03T20:23:52.422Z,100611.13
2022-11-03T20:26:25.490Z,100604.03
2022-11-03T20:28:55.633Z,100605.78
2022-11-03T20:31:24.695Z,100604.03
2022-11-03T20:33:53.317Z,100602.25
2022-11-03T20:36:23.677Z,100593.44
2022-11-03T20:38:56.761Z,100594.34
2022-11-03T20:41:26.349Z,100594.28
2022-11-03T20:43:56.115Z,100589.87
2022-11-03T20:46:28.855Z,100576.56
2022-11-03T20:48:57.816Z,100573.91
2022-11-03T20:51:31.958Z,100575.69
2022-11-03T20:54:04.146Z,100565.22
2022-11-03T20:56:31.731Z,100563.31
2022-11-03T20:58:59.562Z,100565.09
2022-11-03T21:01:39.019Z,100546.66
2022-11-03T21:04:10.071Z,100558.00
2022-11-03T21:06:37.623Z,100552.69
2022-11-03T21:09:05.282Z,100554.53
2022-11-03T21:11:39.798Z,100551.00
2022-11-03T21:14:25.332Z,100555.34
2022-11-03T21:17:11.731Z,100562.41
2022-11-03T21:19:58.021Z,100561.56
2022-11-03T21:22:53.287Z,100556.25
2022-11-03T21:25:23.859Z,100544.00
2022-11-03T21:27:51.800Z,100552.69
2022-11-03T21:30:19.180Z,100555.44
2022-11-03T21:32:47.949Z,100556.38
2022-11-03T21:35:20.499Z,100559.88
2022-11-03T21:37:48.170Z,100558.13
2022-11-03T21:40:15.622Z,100550.25
2022-11-03T21:43:01.157Z,100551.94
2022-11-03T21:45:28.113Z,100531.81
2022-11-03T21:48:14.741Z,100548.44
2022-11-03T21:50:42.907Z,100543.13
2022-11-03T21:53:11.076Z,100529.00
2022-11-03T21:55:38.504Z,100521.13
2022-11-03T21:58:05.660Z,100539.63
2022-11-03T22:00:33.080Z,100527.25
2022-11-03T22:03:00.746Z,100530.81
2022-11-03T22:05:27.886Z,100511.53
2022-11-03T22:07:54.780Z,100532.59
2022-11-03T22:10:22.087Z,100522.91
2022-11-03T22:12:49.264Z,100494.69
2022-11-03T22:15:35.093Z,100497.25
2022-11-03T22:18:07.148Z,100481.41
2022-11-03T22:20:55.101Z,100474.31
2022-11-03T22:23:40.671Z,100462.81
2022-11-03T22:26:34.626Z,100461.94
2022-11-03T22:29:20.479Z,100461.00
2022-11-03T22:31:47.302Z,100463.66
2022-11-03T22:34:33.346Z,100439.97
2022-11-03T22:37:00.375Z,100428.50
2022-11-03T22:39:45.975Z,100446.00
2022-11-03T22:42:31.973Z,100430.25
2022-11-03T22:45:17.504Z,100420.53
2022-11-03T22:47:44.349Z,100434.50
2022-11-03T22:50:11.236Z,100430.16
2022-11-03T22:52:39.947Z,100431.00
2022-11-03T22:55:07.023Z,100421.25
2022-11-03T22:57:34.074Z,100421.25
2022-11-03T23:00:05.719Z,100414.28
2022-11-03T23:02:32.837Z,100417.88
2022-11-03T23:04:59.698Z,100438.06
2022-11-03T23:07:32.218Z,100426.63
2022-11-03T23:10:04.628Z,100417.81
2022-11-03T23:12:32.217Z,100424.03
2022-11-03T23:15:17.621Z,100427.66
2022-11-03T23:18:03.142Z,100423.31
2022-11-03T23:20:59.410Z,100419.03
2022-11-03T23:23:44.926Z,100422.59
2022-11-03T23:26:11.891Z,100421.75
2022-11-03T23:28:38.904Z,100391.81
2022-11-03T23:31:06.314Z,100382.09
2022-11-03T23:33:33.410Z,100395.09
2022-11-03T23:36:10.951Z,100392.38
2022-11-03T23:38:38.917Z,100372.25
2022-11-03T23:41:12.141Z,100402.00
2022-11-03T23:43:39.467Z,100397.56
2022-11-03T23:46:25.436Z,100389.72
2022-11-03T23:48:52.911Z,100386.16
2022-11-03T23:51:21.993Z,100394.88
2022-11-03T23:53:49.973Z,100382.53
2022-11-03T23:56:38.210Z,100384.22
2022-11-03T23:59:05.823Z,100376.31
